createdAt,value
2022-10-09T00:01:25.051Z,101814.41
2022-10-09T00:03:55.129Z,101819.06
2022-10-09T00:06:25.925Z,101825.66
2022-10-09T00:08:53.867Z,101827.53
2022-10-09T00:11:24.699Z,101826.91
2022-10-09T00:13:53.518Z,101836.69
2022-10-09T00:16:22.691Z,101846.97
2022-10-09T00:18:51.069Z,101848.34
2022-10-09T00:21:22.049Z,101850.47
2022-10-09T00:23:52.792Z,101847.69
2022-10-09T00:26:22.778Z,101850.44
2022-10-09T00:28:51.626Z,101857.78
2022-10-09T00:31:21.178Z,101850.38
2022-10-09T00:33:53.617Z,101857.50
2022-10-09T00:36:25.701Z,101860.81
2022-10-09T00:38:56.309Z,101857.28
2022-10-09T00:41:27.517Z,101862.16
2022-10-09T00:43:57.611Z,101859.28
2022-10-09T00:46:37.153Z,101867.53
2022-10-09T00:49:16.135Z,101867.63
2022-10-09T00:51:48.331Z,101863.63
2022-10-09T00:54:22.194Z,101871.19
2022-10-09T00:56:50.873Z,101869.66
2022-10-09T00:59:22.225Z,101869.66
2022-10-09T01:01:52.266Z,101877.78
2022-10-09T01:04:20.193Z,101875.84
2022-10-09T01:07:04.975Z,101881.19
2022-10-09T01:09:39.258Z,101879.06
2022-10-09T01:12:17.829Z,101877.69
2022-10-09T01:14:51.883Z,101880.44
2022-10-09T01:17:26.802Z,101883.03
2022-10-09T01:20:23.051Z,101887.50
2022-10-09T01:23:07.753Z,101892.50
2022-10-09T01:25:44.501Z,101892.50
2022-10-09T01:28:20.970Z,101890.66
2022-10-09T01:30:49.893Z,101894.13
2022-10-09T01:33:20.606Z,101896.28
2022-10-09T01:35:49.670Z,101896.47
2022-10-09T01:38:18.837Z,101894.59
2022-10-09T01:40:46.761Z,101897.06
2022-10-09T01:43:15.880Z,101903.94
2022-10-09T01:45:47.120Z,101899.47
2022-10-09T01:48:19.188Z,101905.94
2022-10-09T01:50:52.398Z,101911.91
2022-10-09T01:53:27.915Z,101906.66
2022-10-09T01:56:00.245Z,101912.22
2022-10-09T01:58:34.661Z,101917.47
2022-10-09T02:01:08.090Z,101905.09
2022-10-09T02:03:40.134Z,101914.19
2022-10-09T02:06:14.394Z,101920.53
2022-10-09T02:08:45.755Z,101922.72
2022-10-09T02:11:18.073Z,101931.28
2022-10-09T02:13:50.695Z,101917.28
2022-10-09T02:16:34.751Z,101918.69
2022-10-09T02:19:09.375Z,101911.91
2022-10-09T02:21:46.470Z,101918.00
2022-10-09T02:24:21.105Z,101920.63
2022-10-09T02:26:49.479Z,101927.31
2022-10-09T02:29:21.582Z,101928.97
2022-10-09T02:31:52.527Z,101933.56
2022-10-09T02:34:22.209Z,101930.69
2022-10-09T02:36:50.177Z,101934.06
2022-10-09T02:39:18.754Z,101928.53
2022-10-09T02:41:46.554Z,101935.84
2022-10-09T02:44:14.298Z,101928.78
2022-10-09T02:46:43.437Z,101932.97
2022-10-09T02:49:11.461Z,101934.50
2022-10-09T02:51:41.438Z,101936.72
2022-10-09T02:54:12.623Z,101934.84
2022-10-09T02:56:40.457Z,101937.72
2022-10-09T02:59:08.342Z,101933.19
2022-10-09T03:01:39.507Z,101936.63
2022-10-09T03:04:08.811Z,101940.44
2022-10-09T03:06:39.100Z,101942.50
2022-10-09T03:09:06.933Z,101942.91
2022-10-09T03:11:34.742Z,101946.47
2022-10-09T03:14:02.561Z,101949.75
2022-10-09T03:16:34.066Z,101947.22
2022-10-09T03:19:01.849Z,101944.91
2022-10-09T03:21:31.041Z,101944.75
2022-10-09T03:23:59.597Z,101955.19
2022-10-09T03:26:29.094Z,101955.38
2022-10-09T03:28:57.240Z,101956.00
2022-10-09T03:34:15.326Z,101957.34
2022-10-09T03:36:46.663Z,101961.47
2022-10-09T03:39:16.909Z,101963.50
2022-10-09T03:41:44.636Z,101968.75
2022-10-09T03:44:12.402Z,101959.72
2022-10-09T03:46:40.207Z,101962.88
2022-10-09T03:49:08.705Z,101959.03
2022-10-09T03:51:38.887Z,101962.59
2022-10-09T03:54:09.681Z,101964.91
2022-10-09T03:56:37.853Z,101959.94
2022-10-09T03:59:07.470Z,101970.81
2022-10-09T04:01:35.405Z,101969.13
2022-10-09T04:04:05.489Z,101967.59
2022-10-09T04:06:35.923Z,101977.75
2022-10-09T04:09:03.659Z,101975.66
2022-10-09T04:11:32.742Z,101972.22
2022-10-09T04:14:00.953Z,101983.47
2022-10-09T04:16:28.798Z,101983.97
2022-10-09T04:18:59.699Z,101988.94
2022-10-09T04:21:29.725Z,101977.53
2022-10-09T04:23:57.516Z,101981.25
2022-10-09T04:26:25.260Z,101987.56
2022-10-09T04:28:55.614Z,101984.50
2022-10-09T04:31:23.500Z,101991.28
2022-10-09T04:33:55.967Z,101991.72
2022-10-09T04:36:23.827Z,101991.72
2022-10-09T04:38:53.979Z,101994.41
2022-10-09T04:41:25.930Z,101994.69
2022-10-09T04:43:57.079Z,101986.97
2022-10-09T04:46:25.312Z,101997.44
2022-10-09T04:48:53.103Z,101992.13
2022-10-09T04:51:20.952Z,101994.94
2022-10-09T04:53:48.702Z,101997.69
2022-10-09T04:56:18.239Z,101990.97
2022-10-09T04:58:47.361Z,101998.97
2022-10-09T05:01:19.199Z,102000.69
2022-10-09T05:03:47.645Z,102010.00
2022-10-09T05:06:16.326Z,102005.88
2022-10-09T05:08:44.365Z,102001.06
2022-10-09T05:11:14.249Z,102013.38
2022-10-09T05:13:44.859Z,102016.13
2022-10-09T05:16:15.435Z,102013.44
2022-10-09T05:18:45.503Z,102022.53
2022-10-09T05:21:13.904Z,102022.66
2022-10-09T05:23:41.678Z,102024.16
2022-10-09T05:26:12.598Z,102026.22
2022-10-09T05:28:40.637Z,102028.56
2022-10-09T05:31:10.138Z,102029.75
2022-10-09T05:33:38.243Z,102028.84
2022-10-09T05:36:07.965Z,102029.47
2022-10-09T05:38:35.791Z,102033.28
2022-10-09T05:41:05.980Z,102037.78
2022-10-09T05:43:35.701Z,102041.56
2022-10-09T05:46:08.707Z,102033.38
2022-10-09T05:48:36.958Z,102040.03
2022-10-09T05:51:14.394Z,102046.97
2022-10-09T05:53:43.462Z,102050.44
2022-10-09T05:56:16.562Z,102055.59
2022-10-09T05:58:45.671Z,102059.16
2022-10-09T06:01:13.461Z,102061.25
2022-10-09T06:03:41.257Z,102064.00
2022-10-09T06:06:09.707Z,102070.06
2022-10-09T06:08:39.373Z,102069.09
2022-10-09T06:11:14.689Z,102066.53
2022-10-09T06:13:43.516Z,102071.84
2022-10-09T06:16:13.480Z,102075.41
2022-10-09T06:18:46.678Z,102079.63
2022-10-09T06:21:17.393Z,102077.69
2022-10-09T06:23:50.404Z,102087.19
2022-10-09T06:26:18.717Z,102081.16
2022-10-09T06:28:47.202Z,102087.41
2022-10-09T06:31:16.866Z,102086.22
2022-10-09T06:33:46.075Z,102093.50
2022-10-09T06:36:15.422Z,102100.28
2022-10-09T06:38:43.885Z,102098.25
2022-10-09T06:41:14.768Z,102097.72
2022-10-09T06:43:43.194Z,102098.38
2022-10-09T06:46:13.291Z,102096.28
2022-10-09T06:48:41.879Z,102101.56
2022-10-09T06:51:11.200Z,102108.63
2022-10-09T06:53:40.120Z,102111.78
2022-10-09T06:56:10.365Z,102114.34
2022-10-09T06:58:41.151Z,102111.59
2022-10-09T07:01:10.931Z,102119.34
2022-10-09T07:03:40.985Z,102122.97
2022-10-09T07:06:10.974Z,102125.41
2022-10-09T07:08:39.537Z,102131.88
2022-10-09T07:11:12.620Z,102126.50
2022-10-09T07:13:42.735Z,102126.00
2022-10-09T07:16:20.740Z,102121.28
2022-10-09T07:18:48.611Z,102129.94
2022-10-09T07:21:17.151Z,102134.25
2022-10-09T07:23:45.421Z,102136.59
2022-10-09T07:26:15.975Z,102133.34
2022-10-09T07:28:46.270Z,102134.41
2022-10-09T07:31:14.961Z,102144.47
2022-10-09T07:33:42.956Z,102140.66
2022-10-09T07:36:11.849Z,102142.78
2022-10-09T07:38:39.865Z,102145.50
2022-10-09T07:41:09.473Z,102145.59
2022-10-09T07:43:38.744Z,102147.09
2022-10-09T07:46:09.643Z,102155.75
2022-10-09T07:48:37.952Z,102159.84
2022-10-09T07:51:13.097Z,102149.06
2022-10-09T07:53:41.359Z,102161.84
2022-10-09T07:56:14.962Z,102157.72
2022-10-09T07:58:42.930Z,102155.75
2022-10-09T08:01:16.122Z,102158.69
2022-10-09T08:03:47.891Z,102164.19
2022-10-09T08:06:16.108Z,102160.22
2022-10-09T08:08:45.029Z,102158.66
2022-10-09T08:11:16.091Z,102160.06
2022-10-09T08:13:45.788Z,102154.03
2022-10-09T08:16:15.440Z,102165.06
2022-10-09T08:18:43.583Z,102157.22
2022-10-09T08:21:14.066Z,102163.22
2022-10-09T08:23:42.627Z,102168.19
2022-10-09T08:26:14.276Z,102169.59
2022-10-09T08:28:42.421Z,102167.59
2022-10-09T08:31:17.611Z,102172.69
2022-10-09T08:33:47.928Z,102169.59
2022-10-09T08:36:16.325Z,102178.25
2022-10-09T08:38:47.501Z,102175.16
2022-10-09T08:41:28.294Z,102188.50
2022-10-09T08:44:02.208Z,102183.22
2022-10-09T08:46:41.541Z,102186.97
2022-10-09T08:49:19.721Z,102187.56
2022-10-09T08:51:47.825Z,102175.69
2022-10-09T08:54:23.790Z,102185.28
2022-10-09T08:56:53.731Z,102177.75
2022-10-09T08:59:22.496Z,102182.78
2022-10-09T09:02:04.859Z,102178.13
2022-10-09T09:04:56.946Z,102177.06
2022-10-09T09:07:34.147Z,102179.09
2022-10-09T09:10:10.986Z,102181.88
2022-10-09T09:12:49.458Z,102171.94
2022-10-09T09:15:31.335Z,102181.66
2022-10-09T09:18:15.252Z,102179.34
2022-10-09T09:20:53.110Z,102174.91
2022-10-09T09:23:31.778Z,102175.75
2022-10-09T09:26:00.647Z,102180.94
2022-10-09T09:28:31.758Z,102172.75
2022-10-09T09:31:07.005Z,102178.34
2022-10-09T09:33:44.957Z,102176.13
2022-10-09T09:36:19.028Z,102173.78
2022-10-09T09:39:12.904Z,102177.22
2022-10-09T09:41:35.264Z,102176.28
2022-10-09T09:44:05.078Z,102171.88
2022-10-09T09:46:40.981Z,102172.91
2022-10-09T09:49:27.141Z,102170.94
2022-10-09T09:51:58.101Z,102159.72
2022-10-09T09:54:28.810Z,102164.44
2022-10-09T09:57:18.292Z,102158.78
2022-10-09T09:59:47.312Z,102161.19
2022-10-09T10:02:19.186Z,102156.97
2022-10-09T10:04:54.062Z,102156.31
2022-10-09T10:07:32.691Z,102154.22
2022-10-09T10:10:06.490Z,102159.56
2022-10-09T10:12:41.174Z,102160.41
2022-10-09T10:15:19.049Z,102151.63
2022-10-09T10:17:48.639Z,102157.09
2022-10-09T10:20:18.964Z,102151.69
2022-10-09T10:22:53.301Z,102154.94
2022-10-09T10:25:23.027Z,102149.84
2022-10-09T10:27:54.717Z,102150.72
2022-10-09T10:30:22.707Z,102148.78
2022-10-09T10:32:56.797Z,102148.38
2022-10-09T10:35:29.339Z,102136.03
2022-10-09T10:38:05.564Z,102144.72
2022-10-09T10:40:38.567Z,102141.59
2022-10-09T10:43:17.222Z,102140.00
2022-10-09T10:45:59.192Z,102139.69
2022-10-09T10:48:30.347Z,102141.59
2022-10-09T10:51:19.776Z,102135.56
2022-10-09T10:54:03.027Z,102129.09
2022-10-09T10:56:38.697Z,102130.81
2022-10-09T10:59:20.359Z,102125.41
2022-10-09T11:02:00.030Z,102119.59
2022-10-09T11:04:44.566Z,102127.09
2022-10-09T11:07:28.181Z,102118.38
2022-10-09T11:10:03.647Z,102120.63
2022-10-09T11:12:48.280Z,102115.09
2022-10-09T11:15:28.611Z,102109.94
2022-10-09T11:18:29.209Z,102115.00
2022-10-09T11:21:16.510Z,102107.66
2022-10-09T11:23:57.001Z,102117.47
2022-10-09T11:26:32.898Z,102116.94
2022-10-09T11:29:08.337Z,102106.50
2022-10-09T11:31:43.434Z,102104.66
2022-10-09T11:34:17.257Z,102101.88
2022-10-09T11:36:46.634Z,102093.59
2022-10-09T11:39:23.368Z,102097.16
2022-10-09T11:41:54.352Z,102093.09
2022-10-09T11:44:44.850Z,102090.19
2022-10-09T11:47:21.797Z,102087.78
2022-10-09T11:50:09.985Z,102089.13
2022-10-09T11:52:47.611Z,102077.66
2022-10-09T11:55:22.692Z,102081.16
2022-10-09T11:57:51.360Z,102072.09
2022-10-09T12:00:30.793Z,102079.84
2022-10-09T12:03:02.387Z,102072.72
2022-10-09T12:05:40.891Z,102064.75
2022-10-09T12:08:19.498Z,102070.50
2022-10-09T12:10:56.421Z,102073.44
2022-10-09T12:13:42.718Z,102063.19
2022-10-09T12:16:29.486Z,102067.19
2022-10-09T12:18:59.957Z,102074.38
2022-10-09T12:21:39.366Z,102059.19
2022-10-09T12:24:08.692Z,102062.91
2022-10-09T12:26:38.130Z,102062.16
2022-10-09T12:29:07.397Z,102060.59
2022-10-09T12:31:41.251Z,102057.44
2022-10-09T12:34:25.213Z,102048.47
2022-10-09T12:37:06.148Z,102049.13
2022-10-09T12:39:34.251Z,102039.91
2022-10-09T12:42:04.759Z,102047.00
2022-10-09T12:44:37.370Z,102042.69
2022-10-09T12:47:09.930Z,102033.97
2022-10-09T12:49:42.788Z,102027.31
2022-10-09T12:52:17.957Z,102024.84
2022-10-09T12:54:48.031Z,102024.81
2022-10-09T12:57:18.632Z,102021.16
2022-10-09T12:59:49.811Z,102019.75
2022-10-09T13:02:18.941Z,102013.91
2022-10-09T13:05:04.015Z,102016.44
2022-10-09T13:07:35.906Z,102018.69
2022-10-09T13:10:09.262Z,102010.06
2022-10-09T13:12:55.551Z,102009.34
2022-10-09T13:15:35.926Z,102008.50
2022-10-09T13:18:32.482Z,102014.97
2022-10-09T13:21:06.315Z,102008.72
2022-10-09T13:23:38.361Z,101999.13
2022-10-09T13:26:23.233Z,102001.91
2022-10-09T13:28:52.442Z,101995.09
2022-10-09T13:31:20.842Z,101993.78
2022-10-09T13:33:49.678Z,101994.91
2022-10-09T13:36:21.769Z,101998.44
2022-10-09T13:38:50.217Z,101998.81
2022-10-09T13:41:26.305Z,101995.66
2022-10-09T13:43:55.707Z,101990.50
2022-10-09T13:46:26.022Z,101993.16
2022-10-09T13:48:58.673Z,101991.34
2022-10-09T13:51:32.872Z,101992.16
2022-10-09T13:54:00.916Z,101991.94
2022-10-09T13:56:33.245Z,101990.47
2022-10-09T13:59:17.038Z,101987.13
2022-10-09T14:01:45.316Z,101979.13
2022-10-09T14:04:16.454Z,101981.16
2022-10-09T14:06:49.696Z,101985.78
2022-10-09T14:09:31.950Z,101977.84
2022-10-09T14:12:00.247Z,101970.81
2022-10-09T14:14:29.881Z,101961.00
2022-10-09T14:16:57.919Z,101969.38
2022-10-09T14:19:27.958Z,101961.13
2022-10-09T14:22:22.461Z,101966.47
2022-10-09T14:24:54.026Z,101963.56
2022-10-09T14:27:23.448Z,101950.66
2022-10-09T14:29:56.720Z,101946.22
2022-10-09T14:32:29.336Z,101947.28
2022-10-09T14:34:57.448Z,101951.28
2022-10-09T14:37:42.518Z,101940.03
2022-10-09T14:40:11.564Z,101940.75
2022-10-09T14:42:40.837Z,101940.84
2022-10-09T14:45:15.557Z,101932.44
2022-10-09T14:47:43.471Z,101930.84
2022-10-09T14:50:11.753Z,101931.19
2022-10-09T14:52:39.952Z,101927.56
2022-10-09T14:55:08.957Z,101919.50
2022-10-09T14:57:36.891Z,101920.59
2022-10-09T15:00:06.263Z,101918.69
2022-10-09T15:02:35.633Z,101924.56
2022-10-09T15:05:03.879Z,101925.41
2022-10-09T15:07:33.643Z,101927.69
2022-10-09T15:10:01.478Z,101928.25
2022-10-09T15:12:30.694Z,101920.41
2022-10-09T15:15:00.918Z,101910.16
2022-10-09T15:17:28.784Z,101911.50
2022-10-09T15:19:58.099Z,101914.28
2022-10-09T15:22:26.063Z,101915.91
2022-10-09T15:24:55.689Z,101904.00
2022-10-09T15:27:23.960Z,101907.22
2022-10-09T15:29:56.166Z,101913.59
2022-10-09T15:32:25.604Z,101902.78
2022-10-09T15:34:55.128Z,101905.44
2022-10-09T15:37:24.675Z,101903.94
2022-10-09T15:39:54.029Z,101901.69
2022-10-09T15:42:24.859Z,101896.84
2022-10-09T15:44:53.129Z,101896.34
2022-10-09T15:47:39.285Z,101893.72
2022-10-09T15:50:16.867Z,101892.28
2022-10-09T15:52:46.547Z,101897.19
2022-10-09T15:55:14.621Z,101896.88
2022-10-09T15:57:42.870Z,101893.94
2022-10-09T16:00:12.048Z,101897.25
2022-10-09T16:02:42.914Z,101896.31
2022-10-09T16:05:11.300Z,101884.38
2022-10-09T16:07:41.912Z,101893.91
2022-10-09T16:10:13.130Z,101893.38
2022-10-09T16:12:41.056Z,101893.53
2022-10-09T16:15:12.722Z,101890.56
2022-10-09T16:17:51.648Z,101888.34
2022-10-09T16:20:22.636Z,101886.97
2022-10-09T16:22:51.082Z,101887.25
2022-10-09T16:25:20.745Z,101882.50
2022-10-09T16:27:48.715Z,101886.03
2022-10-09T16:30:17.399Z,101886.44
2022-10-09T16:32:48.690Z,101881.66
2022-10-09T16:35:17.206Z,101889.59
2022-10-09T16:37:45.617Z,101881.63
2022-10-09T16:40:17.057Z,101887.78
2022-10-09T16:42:46.834Z,101883.50
2022-10-09T16:45:15.316Z,101884.34
2022-10-09T16:47:44.355Z,101877.03
2022-10-09T16:50:13.071Z,101878.72
2022-10-09T16:52:41.308Z,101884.41
2022-10-09T16:55:09.970Z,101873.97
2022-10-09T16:57:37.839Z,101878.41
2022-10-09T17:00:16.045Z,101861.34
2022-10-09T17:02:46.090Z,101881.09
2022-10-09T17:05:14.021Z,101869.91
2022-10-09T17:07:42.131Z,101875.03
2022-10-09T17:10:13.799Z,101873.78
2022-10-09T17:12:42.296Z,101873.16
2022-10-09T17:15:15.108Z,101871.75
2022-10-09T17:17:51.060Z,101869.25
2022-10-09T17:20:22.568Z,101875.50
2022-10-09T17:22:51.114Z,101872.97
2022-10-09T17:25:19.448Z,101866.28
2022-10-09T17:27:47.594Z,101868.81
2022-10-09T17:30:16.937Z,101872.88
2022-10-09T17:32:47.566Z,101868.53
2022-10-09T17:35:16.029Z,101869.75
2022-10-09T17:37:44.081Z,101868.16
2022-10-09T17:40:14.530Z,101861.75
2022-10-09T17:42:42.560Z,101865.50
2022-10-09T17:45:10.838Z,101869.91
2022-10-09T17:47:40.158Z,101865.69
2022-10-09T17:50:09.590Z,101864.44
2022-10-09T17:52:37.682Z,101857.78
2022-10-09T17:55:06.978Z,101858.34
2022-10-09T17:57:35.435Z,101855.78
2022-10-09T18:00:03.403Z,101850.72
2022-10-09T18:02:32.833Z,101852.75
2022-10-09T18:05:11.797Z,101848.41
2022-10-09T18:07:39.891Z,101853.03
2022-10-09T18:10:08.777Z,101855.16
2022-10-09T18:12:37.165Z,101854.06
2022-10-09T18:15:05.924Z,101852.47
2022-10-09T18:17:34.427Z,101854.84
2022-10-09T18:20:02.501Z,101851.72
2022-10-09T18:22:41.514Z,101852.09
2022-10-09T18:25:09.496Z,101855.34
2022-10-09T18:27:37.588Z,101843.53
2022-10-09T18:30:06.382Z,101842.31
2022-10-09T18:32:36.674Z,101837.63
2022-10-09T18:35:07.153Z,101833.22
2022-10-09T18:37:39.141Z,101832.78
2022-10-09T18:40:08.883Z,101833.75
2022-10-09T18:42:36.887Z,101830.06
2022-10-09T18:45:05.492Z,101831.69
2022-10-09T18:47:35.983Z,101833.34
2022-10-09T18:50:14.841Z,101824.47
2022-10-09T18:52:48.447Z,101827.16
2022-10-09T18:55:19.875Z,101822.44
2022-10-09T18:57:48.549Z,101826.75
2022-10-09T19:00:16.919Z,101825.81
2022-10-09T19:02:45.340Z,101831.41
2022-10-09T19:05:15.815Z,101827.94
2022-10-09T19:07:48.440Z,101822.59
2022-10-09T19:10:20.116Z,101819.63
2022-10-09T19:12:50.594Z,101824.88
2022-10-09T19:15:20.252Z,101816.41
2022-10-09T19:17:51.614Z,101816.03
2022-10-09T19:20:19.962Z,101807.56
2022-10-09T19:22:50.871Z,101798.91
2022-10-09T19:25:21.774Z,101801.41
2022-10-09T19:27:50.027Z,101804.44
2022-10-09T19:30:18.590Z,101801.63
2022-10-09T19:32:48.860Z,101805.88
2022-10-09T19:35:19.959Z,101809.00
2022-10-09T19:37:49.807Z,101802.56
2022-10-09T19:40:19.794Z,101806.66
2022-10-09T19:42:48.473Z,101794.34
2022-10-09T19:45:16.766Z,101796.19
2022-10-09T19:47:44.800Z,101795.16
2022-10-09T19:50:15.032Z,101793.56
2022-10-09T19:52:47.400Z,101791.81
2022-10-09T19:55:17.175Z,101789.81
2022-10-09T19:57:45.387Z,101792.63
2022-10-09T20:00:14.260Z,101790.00
2022-10-09T20:02:42.208Z,101783.38
2022-10-09T20:05:10.694Z,101778.13
2022-10-09T20:07:39.328Z,101777.56
2022-10-09T20:10:08.322Z,101773.47
2022-10-09T20:12:39.740Z,101774.81
2022-10-09T20:15:09.075Z,101774.63
2022-10-09T20:17:37.112Z,101772.75
2022-10-09T20:20:05.570Z,101773.38
2022-10-09T20:22:33.770Z,101766.16
2022-10-09T20:25:01.636Z,101767.09
2022-10-09T20:27:31.933Z,101766.31
2022-10-09T20:30:03.579Z,101775.78
2022-10-09T20:32:33.619Z,101771.38
2022-10-09T20:35:02.499Z,101767.13
2022-10-09T20:37:33.364Z,101760.63
2022-10-09T20:40:01.790Z,101765.75
2022-10-09T20:42:29.940Z,101769.09
2022-10-09T20:44:57.794Z,101762.44
2022-10-09T20:47:32.029Z,101754.50
2022-10-09T20:49:59.989Z,101768.09
2022-10-09T20:52:30.974Z,101767.72
2022-10-09T20:55:00.420Z,101756.75
2022-10-09T20:57:28.414Z,101769.09
2022-10-09T20:59:56.366Z,101759.06
2022-10-09T21:02:25.396Z,101762.00
2022-10-09T21:04:57.791Z,101760.69
2022-10-09T21:07:36.891Z,101757.38
2022-10-09T21:10:20.025Z,101750.97
2022-10-09T21:12:48.978Z,101749.94
2022-10-09T21:15:27.173Z,101755.16
2022-10-09T21:17:55.452Z,101748.22
2022-10-09T21:20:32.076Z,101750.84
2022-10-09T21:23:05.774Z,101744.44
2022-10-09T21:25:37.859Z,101739.41
2022-10-09T21:28:06.344Z,101738.25
2022-10-09T21:30:41.559Z,101734.63
2022-10-09T21:33:10.232Z,101730.72
2022-10-09T21:35:47.061Z,101729.16
2022-10-09T21:38:19.171Z,101738.41
2022-10-09T21:40:51.278Z,101726.53
2022-10-09T21:43:21.183Z,101726.53
2022-10-09T21:45:51.876Z,101728.31
2022-10-09T21:48:19.794Z,101730.06
2022-10-09T21:50:51.449Z,101732.25
2022-10-09T21:53:19.213Z,101725.22
2022-10-09T21:55:46.974Z,101730.63
2022-10-09T21:58:15.923Z,101724.78
2022-10-09T22:00:44.425Z,101722.66
2022-10-09T22:03:14.383Z,101726.31
2022-10-09T22:05:42.115Z,101726.72
2022-10-09T22:08:13.409Z,101722.16
2022-10-09T22:10:42.310Z,101716.69
2022-10-09T22:13:10.112Z,101719.81
2022-10-09T22:15:41.341Z,101713.38
2022-10-09T22:18:09.269Z,101718.03
2022-10-09T22:20:41.632Z,101718.78
2022-10-09T22:23:13.076Z,101711.84
2022-10-09T22:25:43.956Z,101710.38
2022-10-09T22:28:11.805Z,101708.34
2022-10-09T22:30:39.539Z,101706.97
2022-10-09T22:33:08.309Z,101700.84
2022-10-09T22:35:49.904Z,101697.69
2022-10-09T22:38:19.054Z,101690.53
2022-10-09T22:41:04.525Z,101688.66
2022-10-09T22:43:34.966Z,101681.53
2022-10-09T22:46:10.794Z,101689.00
2022-10-09T22:48:44.968Z,101683.66
2022-10-09T22:51:14.242Z,101683.66
2022-10-09T22:53:47.498Z,101675.81
2022-10-09T22:56:17.036Z,101678.31
2022-10-09T22:58:47.155Z,101673.84
2022-10-09T23:01:17.215Z,101674.69
2022-10-09T23:03:45.785Z,101666.81
2022-10-09T23:06:15.799Z,101668.91
2022-10-09T23:08:49.804Z,101668.59
2022-10-09T23:11:20.776Z,101663.19
2022-10-09T23:13:53.128Z,101659.03
2022-10-09T23:16:21.335Z,101656.78
2022-10-09T23:18:49.192Z,101657.81
2022-10-09T23:21:23.579Z,101658.22
2022-10-09T23:23:52.946Z,101650.78
2022-10-09T23:26:40.723Z,101659.13
2022-10-09T23:29:13.645Z,101649.19
2022-10-09T23:31:41.488Z,101648.16
2022-10-09T23:34:09.338Z,101650.53
2022-10-09T23:36:40.833Z,101647.19
2022-10-09T23:39:12.796Z,101642.72
2022-10-09T23:41:47.540Z,101650.50
2022-10-09T23:44:17.802Z,101642.72
2022-10-09T23:46:49.081Z,101642.06
2022-10-09T23:49:19.235Z,101643.91
2022-10-09T23:51:49.526Z,101642.16
2022-10-09T23:54:18.620Z,101641.06
2022-10-09T23:56:46.379Z,101641.44
2022-10-09T23:59:14.155Z,101635.91
